createdAt,value
2023-01-17T00:00:01.036Z,100.00
2023-01-17T00:02:30.862Z,100.00
2023-01-17T00:05:17.087Z,100.00
2023-01-17T00:08:01.859Z,100.00
2023-01-17T00:10:28.554Z,100.00
2023-01-17T00:13:03.285Z,100.00
2023-01-17T00:15:31.192Z,100.00
2023-01-17T00:17:58.251Z,100.00
2023-01-17T00:20:46.504Z,100.00
2023-01-17T00:23:36.013Z,100.00
2023-01-17T00:26:04.208Z,100.00
2023-01-17T00:28:38.937Z,100.00
2023-01-17T00:31:07.905Z,100.00
2023-01-17T00:33:34.731Z,100.00
2023-01-17T00:36:02.805Z,100.00
2023-01-17T00:38:32.029Z,100.00
2023-01-17T00:41:03.519Z,100.00
2023-01-17T00:43:49.357Z,100.00
2023-01-17T00:46:35.265Z,100.00
2023-01-17T00:49:20.270Z,100.00
2023-01-17T00:52:05.071Z,100.00
2023-01-17T00:54:49.995Z,100.00
2023-01-17T00:57:34.681Z,100.00
2023-01-17T01:00:19.824Z,100.00
2023-01-17T01:03:04.617Z,100.00
2023-01-17T01:05:50.139Z,100.00
2023-01-17T01:08:44.174Z,100.00
2023-01-17T01:11:32.698Z,100.00
2023-01-17T01:14:19.301Z,100.00
2023-01-17T01:17:05.174Z,100.00
2023-01-17T01:19:50.698Z,100.00
2023-01-17T01:22:36.253Z,100.00
2023-01-17T01:25:22.170Z,100.00
2023-01-17T01:28:07.112Z,100.00
2023-01-17T01:30:51.885Z,100.00
2023-01-17T01:33:21.092Z,100.00
2023-01-17T01:35:52.166Z,100.00
2023-01-17T01:38:20.693Z,100.00
2023-01-17T01:40:49.718Z,100.00
2023-01-17T01:43:19.928Z,100.00
2023-01-17T01:45:57.823Z,100.00
2023-01-17T01:48:35.854Z,100.00
2023-01-17T01:51:07.491Z,100.00
2023-01-17T01:53:37.166Z,100.00
2023-01-17T01:56:08.996Z,100.00
2023-01-17T01:58:37.798Z,100.00
2023-01-17T02:01:06.865Z,100.00
2023-01-17T02:03:34.694Z,100.00
2023-01-17T02:06:16.174Z,100.00
2023-01-17T02:08:42.710Z,100.00
2023-01-17T02:11:09.598Z,100.00
2023-01-17T02:13:36.484Z,100.00
2023-01-17T02:16:17.958Z,100.00
2023-01-17T02:19:13.906Z,100.00
2023-01-17T02:21:58.113Z,100.00
2023-01-17T02:24:43.244Z,100.00
2023-01-17T02:27:12.768Z,100.00
2023-01-17T02:30:28.855Z,100.00
2023-01-17T02:33:23.485Z,100.00
2023-01-17T02:36:23.642Z,100.00
2023-01-17T02:38:58.937Z,100.00
2023-01-17T02:41:32.518Z,100.00
2023-01-17T02:43:58.920Z,100.00
2023-01-17T02:46:25.481Z,100.00
2023-01-17T02:48:52.258Z,100.00
2023-01-17T02:51:44.642Z,100.00
2023-01-17T02:54:20.477Z,100.00
2023-01-17T02:57:22.034Z,100.00
2023-01-17T03:00:15.216Z,100.00
2023-01-17T03:02:57.334Z,100.00
2023-01-17T03:06:00.665Z,100.00
2023-01-17T03:08:28.376Z,100.00
2023-01-17T03:10:55.292Z,100.00
2023-01-17T03:13:21.896Z,100.00
2023-01-17T03:15:48.553Z,100.00
2023-01-17T03:18:17.040Z,100.00
2023-01-17T03:20:43.565Z,100.00
2023-01-17T03:23:10.037Z,100.00
2023-01-17T03:25:36.523Z,100.00
2023-01-17T03:28:03.247Z,100.00
2023-01-17T03:30:29.773Z,100.00
2023-01-17T03:32:56.422Z,100.00
2023-01-17T03:35:23.027Z,100.00
2023-01-17T03:37:49.488Z,100.00
2023-01-17T03:40:16.251Z,100.00
2023-01-17T03:42:43.823Z,100.00
2023-01-17T03:45:11.111Z,100.00
2023-01-17T03:47:37.556Z,100.00
2023-01-17T03:50:04.683Z,100.00
2023-01-17T03:52:31.179Z,100.00
2023-01-17T03:54:57.733Z,100.00
2023-01-17T03:57:24.305Z,100.00
2023-01-17T03:59:50.797Z,100.00
2023-01-17T04:02:17.736Z,100.00
2023-01-17T04:04:44.455Z,100.00
2023-01-17T04:07:10.886Z,100.00
2023-01-17T04:09:37.415Z,100.00
2023-01-17T04:12:03.983Z,100.00
2023-01-17T04:14:30.476Z,100.00
2023-01-17T04:16:57.245Z,100.00
2023-01-17T04:19:23.790Z,100.00
2023-01-17T04:21:50.247Z,100.00
2023-01-17T04:24:18.034Z,100.00
2023-01-17T04:26:44.943Z,100.00
2023-01-17T04:29:11.443Z,100.00
2023-01-17T04:31:37.903Z,100.00
2023-01-17T04:34:04.346Z,100.00
2023-01-17T04:36:30.819Z,100.00
2023-01-17T04:38:57.271Z,100.00
2023-01-17T04:41:23.796Z,100.00
2023-01-17T04:43:50.246Z,100.00
2023-01-17T04:46:16.748Z,100.00
2023-01-17T04:48:43.309Z,100.00
2023-01-17T04:51:09.747Z,100.00
2023-01-17T04:53:36.271Z,100.00
2023-01-17T04:56:03.237Z,100.00
2023-01-17T04:58:29.845Z,100.00
2023-01-17T05:01:00.640Z,100.00
2023-01-17T05:03:27.054Z,100.00
2023-01-17T05:05:53.483Z,100.00
2023-01-17T05:08:19.969Z,100.00
2023-01-17T05:10:46.973Z,100.00
2023-01-17T05:13:14.261Z,100.00
2023-01-17T05:15:41.236Z,100.00
2023-01-17T05:18:12.598Z,100.00
2023-01-17T05:20:39.448Z,100.00
2023-01-17T05:23:05.896Z,100.00
2023-01-17T05:25:33.226Z,100.00
2023-01-17T05:28:00.443Z,100.00
2023-01-17T05:30:28.786Z,100.00
2023-01-17T05:32:56.867Z,100.00
2023-01-17T05:35:29.125Z,100.00
2023-01-17T05:37:56.232Z,100.00
2023-01-17T05:40:26.922Z,100.00
2023-01-17T05:42:54.932Z,100.00
2023-01-17T05:45:24.109Z,100.00
2023-01-17T05:47:52.886Z,100.00
2023-01-17T05:50:25.574Z,100.00
2023-01-17T05:53:00.747Z,100.00
2023-01-17T05:55:28.401Z,100.00
2023-01-17T05:57:55.906Z,100.00
2023-01-17T06:00:23.213Z,100.00
2023-01-17T06:02:49.994Z,100.00
2023-01-17T06:05:16.968Z,100.00
2023-01-17T06:07:45.187Z,100.00
2023-01-17T06:10:14.632Z,100.00
2023-01-17T06:12:45.438Z,100.00
2023-01-17T06:15:13.786Z,100.00
2023-01-17T06:17:40.308Z,100.00
2023-01-17T06:20:09.195Z,100.00
2023-01-17T06:22:35.796Z,100.00
2023-01-17T06:25:02.714Z,100.00
2023-01-17T06:27:29.370Z,100.00
2023-01-17T06:29:55.800Z,100.00
2023-01-17T06:32:22.223Z,100.00
2023-01-17T06:34:49.063Z,100.00
2023-01-17T06:37:15.559Z,100.00
2023-01-17T06:39:42.218Z,100.00
2023-01-17T06:42:08.640Z,100.00
2023-01-17T06:44:35.155Z,100.00
2023-01-17T06:47:01.640Z,100.00
2023-01-17T06:49:28.188Z,100.00
2023-01-17T06:51:54.673Z,100.00
2023-01-17T06:54:21.075Z,100.00
2023-01-17T06:56:47.507Z,100.00
2023-01-17T06:59:13.907Z,100.00
2023-01-17T07:01:41.418Z,100.00
2023-01-17T07:04:08.174Z,100.00
2023-01-17T07:06:36.498Z,100.00
2023-01-17T07:09:04.166Z,100.00
2023-01-17T07:11:31.176Z,100.00
2023-01-17T07:13:57.771Z,100.00
2023-01-17T07:16:24.349Z,100.00
2023-01-17T07:18:51.797Z,100.00
2023-01-17T07:21:18.562Z,100.00
2023-01-17T07:23:45.012Z,100.00
2023-01-17T07:26:11.468Z,100.00
2023-01-17T07:28:37.942Z,100.00
2023-01-17T07:31:08.419Z,100.00
2023-01-17T07:33:35.362Z,100.00
2023-01-17T07:36:09.282Z,100.00
2023-01-17T07:38:35.888Z,100.00
2023-01-17T07:41:02.345Z,100.00
2023-01-17T07:43:29.423Z,100.00
2023-01-17T07:45:56.007Z,100.00
2023-01-17T07:48:23.971Z,100.00
2023-01-17T07:50:58.237Z,100.00
2023-01-17T07:53:28.181Z,100.00
2023-01-17T07:55:55.241Z,100.00
2023-01-17T07:58:21.940Z,100.00
2023-01-17T08:00:48.512Z,100.00
2023-01-17T08:03:17.644Z,100.00
2023-01-17T08:05:54.627Z,100.00
2023-01-17T08:08:21.134Z,100.00
2023-01-17T08:10:47.560Z,100.00
2023-01-17T08:13:14.007Z,100.00
2023-01-17T08:15:40.546Z,100.00
2023-01-17T08:18:06.976Z,100.00
2023-01-17T08:20:33.460Z,100.00
2023-01-17T08:22:59.870Z,100.00
2023-01-17T08:25:27.399Z,100.00
2023-01-17T08:27:57.829Z,100.00
2023-01-17T08:30:25.286Z,100.00
2023-01-17T08:32:51.785Z,100.00
2023-01-17T08:35:19.928Z,100.00
2023-01-17T08:37:47.739Z,100.00
2023-01-17T08:40:17.546Z,100.00
2023-01-17T08:42:44.193Z,100.00
2023-01-17T08:45:11.794Z,100.00
2023-01-17T08:47:38.528Z,100.00
2023-01-17T08:50:06.769Z,100.00
2023-01-17T08:52:33.825Z,100.00
2023-01-17T08:55:00.306Z,100.00
2023-01-17T08:57:26.897Z,100.00
2023-01-17T08:59:53.512Z,100.00
2023-01-17T09:02:20.986Z,100.00
2023-01-17T09:04:49.002Z,100.00
2023-01-17T09:07:17.303Z,100.00
2023-01-17T09:09:43.805Z,100.00
2023-01-17T09:12:10.546Z,100.00
2023-01-17T09:14:37.667Z,100.00
2023-01-17T09:17:06.726Z,100.00
2023-01-17T09:19:33.265Z,100.00
2023-01-17T09:21:59.688Z,100.00
2023-01-17T09:24:26.131Z,100.00
2023-01-17T09:26:52.644Z,100.00
2023-01-17T09:29:19.083Z,100.00
2023-01-17T09:31:47.295Z,100.00
2023-01-17T09:34:15.336Z,100.00
2023-01-17T09:36:42.408Z,100.00
2023-01-17T09:39:10.886Z,100.00
2023-01-17T09:41:47.420Z,100.00
2023-01-17T09:44:27.973Z,100.00
2023-01-17T09:47:00.010Z,100.00
2023-01-17T09:49:32.568Z,100.00
2023-01-17T09:51:59.826Z,100.00
2023-01-17T09:54:37.726Z,100.00
2023-01-17T09:57:25.530Z,100.00
2023-01-17T10:00:34.320Z,100.00
2023-01-17T10:03:06.692Z,100.00
2023-01-17T10:05:50.036Z,100.00
2023-01-17T10:08:26.614Z,100.00
2023-01-17T10:11:23.536Z,100.00
2023-01-17T10:14:28.133Z,100.00
2023-01-17T10:17:28.674Z,100.00
2023-01-17T10:20:17.011Z,100.00
2023-01-17T10:23:22.077Z,100.00
2023-01-17T10:25:50.186Z,100.00
2023-01-17T10:28:31.895Z,100.00
2023-01-17T10:31:03.666Z,100.00
2023-01-17T10:33:40.329Z,100.00
2023-01-17T10:36:24.350Z,100.00
2023-01-17T10:38:54.325Z,100.00
2023-01-17T10:41:45.066Z,100.00
2023-01-17T10:44:20.558Z,100.00
2023-01-17T10:47:16.006Z,100.00
2023-01-17T10:49:46.285Z,100.00
2023-01-17T10:52:16.737Z,100.00
2023-01-17T10:54:52.576Z,100.00
2023-01-17T10:57:25.238Z,100.00
2023-01-17T10:59:52.717Z,100.00
2023-01-17T11:02:35.763Z,100.00
2023-01-17T11:05:10.958Z,100.00
2023-01-17T11:07:39.983Z,100.00
2023-01-17T11:10:27.123Z,100.00
2023-01-17T11:12:53.664Z,100.00
2023-01-17T11:15:25.798Z,99.24
2023-01-17T11:18:02.049Z,98.73
2023-01-17T11:20:42.943Z,97.61
2023-01-17T11:23:29.821Z,97.25
2023-01-17T11:25:59.795Z,96.51
2023-01-17T11:28:31.568Z,98.17
2023-01-17T11:31:07.547Z,96.36
2023-01-17T11:33:49.094Z,93.02
2023-01-17T11:36:24.627Z,95.12
2023-01-17T11:38:57.175Z,96.30
2023-01-17T11:41:25.116Z,97.54
2023-01-17T11:43:56.205Z,95.44
2023-01-17T11:46:23.952Z,94.55
2023-01-17T11:48:56.348Z,94.36
2023-01-17T11:51:25.290Z,92.63
2023-01-17T11:53:54.060Z,89.41
2023-01-17T11:56:29.169Z,88.94
2023-01-17T11:59:17.432Z,89.45
2023-01-17T12:02:01.095Z,86.96
2023-01-17T12:04:36.394Z,87.74
2023-01-17T12:07:05.991Z,84.55
2023-01-17T12:09:32.381Z,87.89
2023-01-17T12:12:32.935Z,87.72
2023-01-17T12:15:21.073Z,86.21
2023-01-17T12:18:06.141Z,85.71
2023-01-17T12:20:51.638Z,82.36
2023-01-17T12:23:50.749Z,82.10
2023-01-17T12:26:34.839Z,85.86
2023-01-17T12:29:04.311Z,88.33
2023-01-17T12:31:41.459Z,88.36
2023-01-17T12:34:50.810Z,85.19
2023-01-17T12:37:31.658Z,83.64
2023-01-17T12:40:02.403Z,80.57
2023-01-17T12:42:37.478Z,78.04
2023-01-17T12:45:03.924Z,73.53
2023-01-17T12:47:34.369Z,71.45
2023-01-17T12:50:06.098Z,74.63
2023-01-17T12:52:42.467Z,78.50
2023-01-17T12:55:17.550Z,74.71
2023-01-17T12:57:52.060Z,73.15
2023-01-17T13:00:25.374Z,73.48
2023-01-17T13:03:14.281Z,69.24
2023-01-17T13:05:45.928Z,70.33
2023-01-17T13:08:43.608Z,70.23
2023-01-17T13:11:28.528Z,66.24
2023-01-17T13:13:57.464Z,64.15
2023-01-17T13:16:44.983Z,63.91
2023-01-17T13:19:23.718Z,64.77
2023-01-17T13:21:50.549Z,67.18
2023-01-17T13:24:22.610Z,62.99
2023-01-17T13:26:55.445Z,61.54
2023-01-17T13:29:52.208Z,58.99
2023-01-17T13:32:39.730Z,56.50
2023-01-17T13:35:18.363Z,56.53
2023-01-17T13:37:50.972Z,57.92
2023-01-17T13:40:35.153Z,57.47
2023-01-17T13:43:06.096Z,56.40
2023-01-17T13:45:35.774Z,53.90
2023-01-17T13:48:18.020Z,52.60
2023-01-17T13:50:44.393Z,53.43
2023-01-17T13:53:31.328Z,55.48
2023-01-17T13:56:19.482Z,56.50
2023-01-17T13:58:54.348Z,57.21
2023-01-17T14:01:24.186Z,58.32
2023-01-17T14:03:53.719Z,56.75
2023-01-17T14:06:40.626Z,58.05
2023-01-17T14:09:22.164Z,60.74
2023-01-17T14:12:05.423Z,62.21
2023-01-17T14:14:42.825Z,62.28
2023-01-17T14:17:27.959Z,63.76
2023-01-17T14:19:57.692Z,66.86
2023-01-17T14:22:27.226Z,67.32
2023-01-17T14:25:15.149Z,65.69
2023-01-17T14:27:55.445Z,65.21
2023-01-17T14:30:33.858Z,65.64
2023-01-17T14:33:04.425Z,66.68
2023-01-17T14:35:36.827Z,66.93
2023-01-17T14:38:12.377Z,71.26
2023-01-17T14:40:39.035Z,71.77
2023-01-17T14:43:11.708Z,69.46
2023-01-17T14:45:39.206Z,67.60
2023-01-17T14:48:14.626Z,68.82
2023-01-17T14:50:43.847Z,71.06
2023-01-17T14:53:15.960Z,69.86
2023-01-17T14:55:48.914Z,72.28
2023-01-17T14:58:20.673Z,72.99
2023-01-17T15:00:50.071Z,73.79
2023-01-17T15:03:17.590Z,74.78
2023-01-17T15:05:49.807Z,75.45
2023-01-17T15:08:34.866Z,76.45
2023-01-17T15:11:18.174Z,77.33
2023-01-17T15:13:49.350Z,77.93
2023-01-17T15:16:23.951Z,80.42
2023-01-17T15:18:51.942Z,80.86
2023-01-17T15:21:22.012Z,81.68
2023-01-17T15:24:03.485Z,81.57
2023-01-17T15:26:34.278Z,81.47
2023-01-17T15:29:22.532Z,83.70
2023-01-17T15:31:53.913Z,81.95
2023-01-17T15:34:36.513Z,83.20
2023-01-17T15:37:21.278Z,81.86
2023-01-17T15:39:48.080Z,80.83
2023-01-17T15:42:28.426Z,80.45
2023-01-17T15:44:58.556Z,80.66
2023-01-17T15:47:35.430Z,80.43
2023-01-17T15:50:27.713Z,81.69
2023-01-17T15:53:00.777Z,82.50
2023-01-17T15:55:35.741Z,82.29
2023-01-17T15:58:03.450Z,82.92
2023-01-17T16:00:37.194Z,83.90
2023-01-17T16:03:26.167Z,83.49
2023-01-17T16:05:56.752Z,83.79
2023-01-17T16:08:26.611Z,85.02
2023-01-17T16:11:01.889Z,85.95
2023-01-17T16:13:31.172Z,86.57
2023-01-17T16:16:21.309Z,86.79
2023-01-17T16:18:49.021Z,87.42
2023-01-17T16:21:18.715Z,88.30
2023-01-17T16:23:46.763Z,88.60
2023-01-17T16:26:13.496Z,89.11
2023-01-17T16:28:39.947Z,89.98
2023-01-17T16:31:06.464Z,90.51
2023-01-17T16:33:32.923Z,90.94
2023-01-17T16:35:59.415Z,91.43
2023-01-17T16:38:25.962Z,92.00
2023-01-17T16:40:53.926Z,92.20
2023-01-17T16:43:20.497Z,92.75
2023-01-17T16:45:50.315Z,93.13
2023-01-17T16:48:19.318Z,93.47
2023-01-17T16:50:50.490Z,94.08
2023-01-17T16:53:22.569Z,94.39
2023-01-17T16:55:53.097Z,94.41
2023-01-17T16:58:20.305Z,94.83
2023-01-17T17:00:47.344Z,94.79
2023-01-17T17:03:18.707Z,94.93
2023-01-17T17:05:53.809Z,95.02
2023-01-17T17:08:20.268Z,95.33
2023-01-17T17:10:47.108Z,95.98
2023-01-17T17:13:13.519Z,96.22
2023-01-17T17:15:43.916Z,96.60
2023-01-17T17:18:15.230Z,96.94
2023-01-17T17:20:42.326Z,97.10
2023-01-17T17:23:10.258Z,97.62
2023-01-17T17:25:37.625Z,97.69
2023-01-17T17:28:05.380Z,97.83
2023-01-17T17:30:33.265Z,98.47
2023-01-17T17:32:59.728Z,98.75
2023-01-17T17:35:26.702Z,98.69
2023-01-17T17:37:53.484Z,99.55
2023-01-17T17:40:20.191Z,99.20
2023-01-17T17:42:46.625Z,99.52
2023-01-17T17:45:13.058Z,99.76
2023-01-17T17:47:39.461Z,100.00
2023-01-17T17:50:06.631Z,100.00
2023-01-17T17:52:33.054Z,100.00
2023-01-17T17:54:59.595Z,100.00
2023-01-17T17:57:26.116Z,100.00
2023-01-17T17:59:55.869Z,100.00
2023-01-17T18:02:22.420Z,100.00
2023-01-17T18:04:48.877Z,100.00
2023-01-17T18:07:15.394Z,100.00
2023-01-17T18:09:41.829Z,100.00
2023-01-17T18:12:08.348Z,100.00
2023-01-17T18:14:34.809Z,100.00
2023-01-17T18:17:01.274Z,100.00
2023-01-17T18:19:27.754Z,100.00
2023-01-17T18:21:54.496Z,100.00
2023-01-17T18:24:23.281Z,100.00
2023-01-17T18:26:52.588Z,100.00
2023-01-17T18:29:20.762Z,100.00
2023-01-17T18:31:49.982Z,100.00
2023-01-17T18:34:23.602Z,100.00
2023-01-17T18:36:51.614Z,100.00
2023-01-17T18:39:24.457Z,100.00
2023-01-17T18:41:51.425Z,100.00
2023-01-17T18:44:21.620Z,100.00
2023-01-17T18:46:48.913Z,100.00
2023-01-17T18:49:18.396Z,100.00
2023-01-17T18:51:48.780Z,100.00
2023-01-17T18:54:15.216Z,100.00
2023-01-17T18:56:42.429Z,100.00
2023-01-17T18:59:12.416Z,100.00
2023-01-17T19:01:42.180Z,100.00
2023-01-17T19:04:09.149Z,100.00
2023-01-17T19:06:38.693Z,100.00
2023-01-17T19:09:07.327Z,100.00
2023-01-17T19:11:35.293Z,100.00
2023-01-17T19:14:01.835Z,100.00
2023-01-17T19:16:34.927Z,100.00
2023-01-17T19:19:05.464Z,100.00
2023-01-17T19:21:32.423Z,100.00
2023-01-17T19:23:59.415Z,100.00
2023-01-17T19:26:27.248Z,100.00
2023-01-17T19:28:56.241Z,100.00
2023-01-17T19:31:28.285Z,100.00
2023-01-17T19:33:57.409Z,100.00
2023-01-17T19:36:27.829Z,100.00
2023-01-17T19:39:03.957Z,100.00
2023-01-17T19:41:32.820Z,100.00
2023-01-17T19:44:01.449Z,100.00
2023-01-17T19:46:28.496Z,100.00
2023-01-17T19:48:57.049Z,100.00
2023-01-17T19:51:24.639Z,100.00
2023-01-17T19:53:51.399Z,100.00
2023-01-17T19:56:20.649Z,100.00
2023-01-17T19:58:47.801Z,100.00
2023-01-17T20:01:19.706Z,100.00
2023-01-17T20:03:47.094Z,100.00
2023-01-17T20:06:16.850Z,100.00
2023-01-17T20:08:43.633Z,100.00
2023-01-17T20:11:17.446Z,100.00
2023-01-17T20:13:45.597Z,100.00
2023-01-17T20:16:15.058Z,100.00
2023-01-17T20:18:42.474Z,100.00
2023-01-17T20:21:15.248Z,100.00
2023-01-17T20:23:43.305Z,100.00
2023-01-17T20:26:11.559Z,100.00
2023-01-17T20:28:40.833Z,100.00
2023-01-17T20:31:15.455Z,100.00
2023-01-17T20:33:43.663Z,100.00
2023-01-17T20:36:14.746Z,100.00
2023-01-17T20:38:46.152Z,100.00
2023-01-17T20:41:25.816Z,100.00
2023-01-17T20:43:54.336Z,100.00
2023-01-17T20:46:22.999Z,100.00
2023-01-17T20:48:57.886Z,100.00
2023-01-17T20:51:26.620Z,100.00
2023-01-17T20:53:59.103Z,100.00
2023-01-17T20:56:26.694Z,100.00
2023-01-17T20:58:54.473Z,100.00
2023-01-17T21:01:24.155Z,100.00
2023-01-17T21:03:53.038Z,100.00
2023-01-17T21:06:21.635Z,100.00
2023-01-17T21:08:48.663Z,100.00
2023-01-17T21:11:18.593Z,100.00
2023-01-17T21:13:45.521Z,100.00
2023-01-17T21:16:14.398Z,100.00
2023-01-17T21:18:41.044Z,100.00
2023-01-17T21:21:12.689Z,100.00
2023-01-17T21:23:40.627Z,100.00
2023-01-17T21:26:10.727Z,100.00
2023-01-17T21:28:38.982Z,100.00
2023-01-17T21:31:19.369Z,100.00
2023-01-17T21:33:47.447Z,100.00
2023-01-17T21:36:14.003Z,100.00
2023-01-17T21:38:40.506Z,100.00
2023-01-17T21:41:06.950Z,100.00
2023-01-17T21:43:33.578Z,100.00
2023-01-17T21:46:05.488Z,100.00
2023-01-17T21:48:32.046Z,100.00
2023-01-17T21:51:06.311Z,100.00
2023-01-17T21:53:35.497Z,100.00
2023-01-17T21:56:22.807Z,100.00
2023-01-17T21:58:53.929Z,100.00
2023-01-17T22:01:22.770Z,100.00
2023-01-17T22:04:02.610Z,100.00
2023-01-17T22:06:31.563Z,100.00
2023-01-17T22:08:59.161Z,100.00
2023-01-17T22:11:26.979Z,100.00
2023-01-17T22:13:53.744Z,100.00
2023-01-17T22:16:23.431Z,100.00
2023-01-17T22:18:50.777Z,100.00
2023-01-17T22:21:20.795Z,100.00
2023-01-17T22:23:56.291Z,100.00
2023-01-17T22:26:25.433Z,100.00
2023-01-17T22:28:52.491Z,100.00
2023-01-17T22:31:22.795Z,100.00
2023-01-17T22:34:07.176Z,100.00
2023-01-17T22:36:34.508Z,100.00
2023-01-17T22:39:01.532Z,100.00
2023-01-17T22:41:33.685Z,100.00
2023-01-17T22:44:05.404Z,100.00
2023-01-17T22:46:33.814Z,100.00
2023-01-17T22:49:00.496Z,100.00
2023-01-17T22:51:28.503Z,100.00
2023-01-17T22:54:00.044Z,100.00
2023-01-17T22:56:29.209Z,100.00
2023-01-17T22:58:55.824Z,100.00
2023-01-17T23:01:27.893Z,100.00
2023-01-17T23:03:57.106Z,100.00
2023-01-17T23:06:30.233Z,100.00
2023-01-17T23:08:59.341Z,100.00
2023-01-17T23:11:39.139Z,100.00
2023-01-17T23:14:12.433Z,100.00
2023-01-17T23:17:15.259Z,100.00
2023-01-17T23:19:47.136Z,100.00
2023-01-17T23:22:17.090Z,100.00
2023-01-17T23:24:53.430Z,100.00
2023-01-17T23:27:47.695Z,100.00
2023-01-17T23:30:17.539Z,100.00
2023-01-17T23:32:46.496Z,100.00
2023-01-17T23:35:13.943Z,100.00
2023-01-17T23:37:59.344Z,100.00
2023-01-17T23:40:25.926Z,100.00
2023-01-17T23:43:11.045Z,100.00
2023-01-17T23:45:39.047Z,100.00
2023-01-17T23:48:09.482Z,100.00
2023-01-17T23:50:44.135Z,100.00
2023-01-17T23:53:15.354Z,100.00
2023-01-17T23:55:43.649Z,100.00
2023-01-17T23:58:11.279Z,100.00
